Samuels, Idaho
Current Conditions -  °F | °C
As of 11:15 PM on Wednesday 22 Oct 2014 (Local Time) from KSZT Reporting Station
Overcast Overcast  
Wind Chill:   Ceiling: 3300
Heat Index:   Visibility: 7mi
Dew Point:   Wind: 5mph
Humidity: 100%   Direction: 160°SSE
Pressure: 29.8"   Gusts: NA
Location:  48.48°N, 116.46°W
Report Text: KSZT 230615Z AUTO 16004KT 7SM SCT019 OVC033 08/08 A2980 RMK AO2
Loading
Personal Weather Stations






























Interactive Weather Map
Tropical Storm Tracking
New forecast layout! Learn more

10-Day Weather Forecast

Advertisements
Track Severe Weather on mobile